Aérodrome :
LOGIN :

S'inscrire | Disclaimer

   EN    FR    IT 

 










Légende :    VFR   VFR Marginal   IFR   IFR Intensif   IFR Très Intensif
Visi : 
Plafond : 
>= 8 km
>= 3000ft
5 à 8 km
1000 à 3000 ft
1500m à 5 km
500 à 1000 ft
800 à 1500m
200 à 500 ft
< 800m
< 200 ft
Symboles :   Orages  Brouillard  Fortes neiges  Fortes précipitations  Vent > 20 kt
SIGMETs :   Divers  Orages  Givrage  Turbulence  Onde Orograph.  Cendres Volcan.







- Altitude de l'aérodrome : 499 ft
- Code IATA : TLS
- Voir les cartes d'approche


LFBO - Toulouse / Blagnac

DERNIER METAR :
  • 170330Z AUTO 12010KT 080V140 9999 FEW017 18/14 Q1021 TEMPO BKN011

METARs EXPIRÉS :
  • 170300Z AUTO 12010KT 090V150 9999 SCT016 18/14 Q1022 TEMPO BKN011
  • 170230Z AUTO 12015KT 9999 BKN016 18/14 Q1022 BECMG BKN012
  • 170200Z AUTO 13013KT 9999 OVC016 18/14 Q1022 BECMG BKN012
  • 170130Z AUTO 13012KT 100V160 9999 OVC015 18/14 Q1023 BECMG BKN012
  • 170100Z AUTO 13010KT 9999 OVC015 18/14 Q1023 BECMG BKN012

TAF AMD TAF LFBO
Valide du 17 à 02h jusqu'au 18 à 06h UTC


170223Z 1702/1806 14011KT 9999 BKN016
TEMPO 1702/1707 BKN011
BECMG 1708/1710 14018G28KT CAVOK
BECMG 1719/1722 14012KT BKN012
ATIS : +33 5 62 74 66 36
Pas de NOTAMs connus pour ce terrain.



MET'MAP, la Météo Aéronautique d'un coup d'oeil ! - Copyright ORBIFLY Décembre 2007 - Disclaimer

ORBIFLY MET'MAP TEAM :

Programmation & Développement : Alexandra Zaïnal
Conception & Développement : Baudouin d'Aumeries
Co-Programmation & Développement : Marc-Olivier Méhu
Soutien technique & logistique : Manuel Goepfert

Contact : metmap@orbifly.com




SOURCES & CREDITS :

   NOAA